createdAt,value
2023-05-05T00:02:09.219Z,4.67
2023-05-05T00:04:36.740Z,4.23
2023-05-05T00:07:03.984Z,4.10
2023-05-05T00:09:31.207Z,4.57
2023-05-05T00:11:58.508Z,4.07
2023-05-05T00:14:25.796Z,4.23
2023-05-05T00:16:53.071Z,4.70
2023-05-05T00:19:20.259Z,4.20
2023-05-05T00:21:47.484Z,4.17
2023-05-05T00:24:14.646Z,4.30
2023-05-05T00:26:41.833Z,4.37
2023-05-05T00:29:09.152Z,4.30
2023-05-05T00:31:36.752Z,4.23
2023-05-05T00:34:03.941Z,4.60
2023-05-05T00:36:31.134Z,4.23
2023-05-05T00:38:58.438Z,4.10
2023-05-05T00:41:25.882Z,4.43
2023-05-05T00:43:53.176Z,4.40
2023-05-05T00:46:25.195Z,4.13
2023-05-05T00:48:52.794Z,4.70
2023-05-05T00:51:20.774Z,4.30
2023-05-05T00:53:51.162Z,3.93
2023-05-05T00:56:20.815Z,4.07
2023-05-05T00:58:49.017Z,3.90
2023-05-05T01:01:17.639Z,4.07
2023-05-05T01:03:45.292Z,3.83
2023-05-05T01:06:15.353Z,4.33
2023-05-05T01:08:49.332Z,4.13
2023-05-05T01:11:35.561Z,4.47
2023-05-05T01:14:13.759Z,3.77
2023-05-05T01:16:45.430Z,3.60
2023-05-05T01:19:21.910Z,4.43
2023-05-05T01:21:52.278Z,4.10
2023-05-05T01:24:23.088Z,3.80
2023-05-05T01:26:53.879Z,4.10
2023-05-05T01:29:22.844Z,4.10
2023-05-05T01:31:54.099Z,4.03
2023-05-05T01:34:27.299Z,3.83
2023-05-05T01:37:01.761Z,4.33
2023-05-05T01:39:33.369Z,4.10
2023-05-05T01:42:02.320Z,3.97
2023-05-05T01:44:29.932Z,4.00
2023-05-05T01:46:59.703Z,4.17
2023-05-05T01:49:29.676Z,4.40
2023-05-05T01:51:58.888Z,4.60
2023-05-05T01:54:27.086Z,4.20
2023-05-05T01:56:57.282Z,4.03
2023-05-05T01:59:25.100Z,4.27
2023-05-05T02:01:52.580Z,4.47
2023-05-05T02:04:22.865Z,4.23
2023-05-05T02:06:52.956Z,4.30
2023-05-05T02:09:20.997Z,4.03
2023-05-05T02:11:48.418Z,4.70
2023-05-05T02:14:16.688Z,4.20
2023-05-05T02:16:44.381Z,5.20
2023-05-05T02:19:12.631Z,4.37
2023-05-05T02:21:41.085Z,3.80
2023-05-05T02:24:08.872Z,3.90
2023-05-05T02:26:36.884Z,4.40
2023-05-05T02:29:13.209Z,4.60
2023-05-05T02:31:44.832Z,4.33
2023-05-05T02:34:13.873Z,4.20
2023-05-05T02:36:42.433Z,4.00
2023-05-05T02:39:13.404Z,4.40
2023-05-05T02:41:43.382Z,4.10
2023-05-05T02:44:20.939Z,4.10
2023-05-05T02:46:48.646Z,3.83
2023-05-05T02:49:16.096Z,3.80
2023-05-05T02:51:44.249Z,4.10
2023-05-05T02:54:20.357Z,4.50
2023-05-05T02:56:51.500Z,4.57
2023-05-05T02:59:31.535Z,4.70
2023-05-05T03:02:07.358Z,4.17
2023-05-05T03:04:39.079Z,4.30
2023-05-05T03:07:11.781Z,4.70
2023-05-05T03:09:57.788Z,4.80
2023-05-05T03:12:28.881Z,3.93
2023-05-05T03:15:13.260Z,4.63
2023-05-05T03:17:41.443Z,4.00
2023-05-05T03:20:10.283Z,4.23
2023-05-05T03:22:41.152Z,4.13
2023-05-05T03:25:12.712Z,4.60
2023-05-05T03:27:39.982Z,3.80
2023-05-05T03:30:08.549Z,4.10
2023-05-05T03:32:40.445Z,4.13
2023-05-05T03:35:07.766Z,4.33
2023-05-05T03:37:35.165Z,4.47
2023-05-05T03:40:02.504Z,4.07
2023-05-05T03:42:31.078Z,4.80
2023-05-05T03:44:59.175Z,4.00
2023-05-05T03:47:27.120Z,4.20
2023-05-05T03:49:55.380Z,4.47
2023-05-05T03:52:22.700Z,4.00
2023-05-05T03:54:49.890Z,4.90
2023-05-05T03:57:17.093Z,3.97
2023-05-05T03:59:44.348Z,4.27
2023-05-05T04:02:11.600Z,4.70
2023-05-05T04:04:38.901Z,4.37
2023-05-05T04:07:06.289Z,4.17
2023-05-05T04:09:33.951Z,4.40
2023-05-05T04:12:01.535Z,4.67
2023-05-05T04:14:29.505Z,4.20
2023-05-05T04:16:56.941Z,4.70
2023-05-05T04:19:24.414Z,4.20
2023-05-05T04:21:52.087Z,4.47
2023-05-05T04:24:24.586Z,7.00
2023-05-05T04:26:53.455Z,24.07
2023-05-05T04:29:21.082Z,26.77
2023-05-05T04:31:48.348Z,4.90
2023-05-05T04:34:15.628Z,4.53
2023-05-05T04:36:42.815Z,4.67
2023-05-05T04:39:10.903Z,4.97
2023-05-05T04:41:38.294Z,4.40
2023-05-05T04:44:06.082Z,4.33
2023-05-05T04:46:34.899Z,4.67
2023-05-05T04:49:04.936Z,4.23
2023-05-05T04:51:32.956Z,4.67
2023-05-05T04:54:00.169Z,4.37
2023-05-05T04:56:28.193Z,4.70
2023-05-05T04:58:55.411Z,3.90
2023-05-05T05:01:22.690Z,19.07
2023-05-05T05:03:50.993Z,8.20
2023-05-05T05:06:18.300Z,4.80
2023-05-05T05:08:45.633Z,4.73
2023-05-05T05:11:12.933Z,4.67
2023-05-05T05:13:40.242Z,4.83
2023-05-05T05:16:07.789Z,4.77
2023-05-05T05:18:35.114Z,4.27
2023-05-05T05:21:03.477Z,4.50
2023-05-05T05:23:30.894Z,4.93
2023-05-05T05:25:58.265Z,4.40
2023-05-05T05:28:26.663Z,4.63
2023-05-05T05:30:58.350Z,3.97
2023-05-05T05:33:26.026Z,4.80
2023-05-05T05:35:55.590Z,4.60
2023-05-05T05:38:22.851Z,4.80
2023-05-05T05:40:54.414Z,4.63
2023-05-05T05:43:22.007Z,4.40
2023-05-05T05:45:49.374Z,4.03
2023-05-05T05:48:17.093Z,4.70
2023-05-05T05:50:44.588Z,4.23
2023-05-05T05:53:11.919Z,4.27
2023-05-05T05:55:39.703Z,4.60
2023-05-05T05:58:07.098Z,4.33
2023-05-05T06:00:34.305Z,4.50
2023-05-05T06:03:07.617Z,4.43
2023-05-05T06:05:37.645Z,4.77
2023-05-05T06:08:05.124Z,4.57
2023-05-05T06:10:35.759Z,4.37
2023-05-05T06:13:10.050Z,4.33
2023-05-05T06:15:41.411Z,4.23
2023-05-05T06:18:09.265Z,4.77
2023-05-05T06:20:36.525Z,4.20
2023-05-05T06:23:08.295Z,4.90
2023-05-05T06:25:38.446Z,3.97
2023-05-05T06:28:05.833Z,4.47
2023-05-05T06:30:33.514Z,4.23
2023-05-05T06:33:00.907Z,3.73
2023-05-05T06:35:28.172Z,4.40
2023-05-05T06:37:55.389Z,3.73
2023-05-05T06:40:22.565Z,4.53
2023-05-05T06:42:49.735Z,3.90
2023-05-05T06:45:22.941Z,3.70
2023-05-05T06:47:50.409Z,3.43
2023-05-05T06:50:17.633Z,3.43
2023-05-05T06:52:44.788Z,3.53
2023-05-05T06:55:11.967Z,3.40
2023-05-05T06:57:39.198Z,3.80
2023-05-05T07:00:09.780Z,3.10
2023-05-05T07:02:37.283Z,3.10
2023-05-05T07:05:05.040Z,2.93
2023-05-05T07:07:32.551Z,3.13
2023-05-05T07:09:59.975Z,2.83
2023-05-05T07:12:31.273Z,2.97
2023-05-05T07:14:58.604Z,2.90
2023-05-05T07:17:25.883Z,2.90
2023-05-05T07:19:54.910Z,2.73
2023-05-05T07:22:22.104Z,2.97
2023-05-05T07:24:49.893Z,2.60
2023-05-05T07:27:19.135Z,2.93
2023-05-05T07:29:46.308Z,3.23
2023-05-05T07:32:13.953Z,3.37
2023-05-05T07:34:41.340Z,2.83
2023-05-05T07:37:08.969Z,3.40
2023-05-05T07:39:36.193Z,2.87
2023-05-05T07:42:03.359Z,2.83
2023-05-05T07:44:30.632Z,3.03
2023-05-05T07:46:57.997Z,2.97
2023-05-05T07:49:25.342Z,2.80
2023-05-05T07:51:52.997Z,2.50
2023-05-05T07:54:20.251Z,2.60
2023-05-05T07:56:47.428Z,2.90
2023-05-05T07:59:14.712Z,2.90
2023-05-05T08:01:42.129Z,2.60
2023-05-05T08:04:09.385Z,2.80
2023-05-05T08:06:36.667Z,2.60
2023-05-05T08:09:03.873Z,2.77
2023-05-05T08:11:31.130Z,2.40
2023-05-05T08:13:58.349Z,2.30
2023-05-05T08:16:25.688Z,2.60
2023-05-05T08:18:52.944Z,2.37
2023-05-05T08:21:20.298Z,2.37
2023-05-05T08:23:47.453Z,2.43
2023-05-05T08:26:14.796Z,2.57
2023-05-05T08:28:42.051Z,2.10
2023-05-05T08:31:10.044Z,2.53
2023-05-05T08:33:37.266Z,2.93
2023-05-05T08:36:05.332Z,2.50
2023-05-05T08:38:32.615Z,2.40
2023-05-05T08:40:59.857Z,2.70
2023-05-05T08:43:27.089Z,2.10
2023-05-05T08:45:56.202Z,2.50
2023-05-05T08:48:24.241Z,2.27
2023-05-05T08:51:00.339Z,2.07
2023-05-05T08:53:41.570Z,2.30
2023-05-05T08:56:08.914Z,2.50
2023-05-05T08:58:37.632Z,2.13
2023-05-05T09:01:06.259Z,2.40
2023-05-05T09:03:34.126Z,2.40
2023-05-05T09:06:01.465Z,2.47
2023-05-05T09:08:30.360Z,2.20
2023-05-05T09:10:57.606Z,2.10
2023-05-05T09:13:24.881Z,2.30
2023-05-05T09:15:52.354Z,2.30
2023-05-05T09:18:19.544Z,2.10
2023-05-05T09:20:46.951Z,2.33
2023-05-05T09:23:16.409Z,2.23
2023-05-05T09:25:44.780Z,2.40
2023-05-05T09:28:16.918Z,2.10
2023-05-05T09:30:46.802Z,2.33
2023-05-05T09:33:14.407Z,2.50
2023-05-05T09:35:51.767Z,2.20
2023-05-05T09:38:19.837Z,2.40
2023-05-05T09:40:48.212Z,2.07
2023-05-05T09:43:19.300Z,2.07
2023-05-05T09:45:48.749Z,2.40
2023-05-05T09:48:30.787Z,2.30
2023-05-05T09:50:58.455Z,2.20
2023-05-05T09:53:26.482Z,2.07
2023-05-05T09:55:57.205Z,2.20
2023-05-05T09:58:26.023Z,2.37
2023-05-05T10:00:54.604Z,2.60
2023-05-05T10:03:21.992Z,2.23
2023-05-05T10:05:53.899Z,2.23
2023-05-05T10:08:21.992Z,2.20
2023-05-05T10:10:53.949Z,2.10
2023-05-05T10:13:22.092Z,2.53
2023-05-05T10:15:51.275Z,2.00
2023-05-05T10:18:21.072Z,2.40
2023-05-05T10:20:49.605Z,2.47
2023-05-05T10:23:19.691Z,2.50
2023-05-05T10:26:02.064Z,2.23
2023-05-05T10:28:32.612Z,2.40
2023-05-05T10:31:02.176Z,2.10
2023-05-05T10:33:45.210Z,2.30
2023-05-05T10:36:13.283Z,2.17
2023-05-05T10:38:40.769Z,2.23
2023-05-05T10:41:08.921Z,1.70
2023-05-05T10:43:36.739Z,1.97
2023-05-05T10:46:04.089Z,1.83
2023-05-05T10:48:49.187Z,2.17
2023-05-05T10:51:35.152Z,2.00
2023-05-05T10:54:13.491Z,2.00
2023-05-05T10:56:41.440Z,2.00
2023-05-05T10:59:27.345Z,2.17
2023-05-05T11:01:54.872Z,2.10
2023-05-05T11:04:22.878Z,2.23
2023-05-05T11:07:23.544Z,2.07
2023-05-05T11:09:55.997Z,2.00
2023-05-05T11:12:23.341Z,1.90
2023-05-05T11:15:10.671Z,2.20
2023-05-05T11:17:47.760Z,1.97
2023-05-05T11:20:15.224Z,2.23
2023-05-05T11:23:03.344Z,1.83
2023-05-05T11:25:33.702Z,2.30
2023-05-05T11:28:08.197Z,2.10
2023-05-05T11:30:36.125Z,2.40
2023-05-05T11:33:22.204Z,1.90
2023-05-05T11:35:56.233Z,2.00
2023-05-05T11:38:29.182Z,2.27
2023-05-05T11:41:00.060Z,2.07
2023-05-05T11:43:27.262Z,1.97
2023-05-05T11:46:13.265Z,2.17
2023-05-05T11:48:47.164Z,2.20
2023-05-05T11:51:16.196Z,2.20
2023-05-05T11:53:44.076Z,1.77
2023-05-05T11:56:11.699Z,1.80
2023-05-05T11:58:39.498Z,2.00
2023-05-05T12:01:10.041Z,2.00
2023-05-05T12:03:38.612Z,1.87
2023-05-05T12:06:06.581Z,2.20
2023-05-05T12:08:37.088Z,1.70
2023-05-05T12:11:04.945Z,1.73
2023-05-05T12:13:32.243Z,1.93
2023-05-05T12:16:16.635Z,1.90
2023-05-05T12:18:43.852Z,2.10
2023-05-05T12:21:17.506Z,1.87
2023-05-05T12:23:45.036Z,2.00
2023-05-05T12:26:26.230Z,1.90
2023-05-05T12:28:53.530Z,1.83
2023-05-05T12:31:20.924Z,2.07
2023-05-05T12:33:49.181Z,1.60
2023-05-05T12:36:16.821Z,2.00
2023-05-05T12:38:44.033Z,1.93
2023-05-05T12:41:11.337Z,2.07
2023-05-05T12:43:38.698Z,1.83
2023-05-05T12:46:10.936Z,2.00
2023-05-05T12:48:39.346Z,1.90
2023-05-05T12:51:12.901Z,1.90
2023-05-05T12:53:40.268Z,2.20
2023-05-05T12:56:07.508Z,2.20
2023-05-05T12:58:49.806Z,2.10
2023-05-05T13:01:17.096Z,2.00
2023-05-05T13:03:44.922Z,2.10
2023-05-05T13:06:22.035Z,2.00
2023-05-05T13:08:49.234Z,2.27
2023-05-05T13:11:16.622Z,1.80
2023-05-05T13:13:43.783Z,2.20
2023-05-05T13:16:12.025Z,2.27
2023-05-05T13:18:49.301Z,2.30
2023-05-05T13:21:16.742Z,2.23
2023-05-05T13:23:44.416Z,1.90
2023-05-05T13:26:12.361Z,2.07
2023-05-05T13:28:40.314Z,2.00
2023-05-05T13:31:08.113Z,1.93
2023-05-05T13:33:35.300Z,2.00
2023-05-05T13:36:03.486Z,1.83
2023-05-05T13:38:33.091Z,1.83
2023-05-05T13:41:00.756Z,1.87
2023-05-05T13:43:27.961Z,1.90
2023-05-05T13:46:02.956Z,1.87
2023-05-05T13:48:40.743Z,1.93
2023-05-05T13:51:09.321Z,2.20
2023-05-05T13:53:36.691Z,2.00
2023-05-05T13:56:04.232Z,2.23
2023-05-05T13:58:31.444Z,2.03
2023-05-05T14:00:58.649Z,1.80
2023-05-05T14:03:25.963Z,2.23
2023-05-05T14:05:53.176Z,1.97
2023-05-05T14:08:20.423Z,2.17
2023-05-05T14:10:48.631Z,2.00
2023-05-05T14:13:16.834Z,1.73
2023-05-05T14:15:44.116Z,1.73
2023-05-05T14:18:11.633Z,2.30
2023-05-05T14:20:38.824Z,2.03
2023-05-05T14:23:06.473Z,2.30
2023-05-05T14:25:33.809Z,2.00
2023-05-05T14:28:01.194Z,2.00
2023-05-05T14:30:28.416Z,2.07
2023-05-05T14:32:55.635Z,2.10
2023-05-05T14:35:22.890Z,2.10
2023-05-05T14:37:50.081Z,1.97
2023-05-05T14:40:17.262Z,1.93
2023-05-05T14:42:44.448Z,1.90
2023-05-05T14:45:11.944Z,2.20
2023-05-05T14:47:39.136Z,2.07
2023-05-05T14:50:09.618Z,2.17
2023-05-05T14:52:39.217Z,2.20
2023-05-05T14:55:07.068Z,1.90
2023-05-05T14:57:34.558Z,2.23
2023-05-05T15:00:01.846Z,1.80
2023-05-05T15:02:29.232Z,2.40
2023-05-05T15:04:56.464Z,2.10
2023-05-05T15:07:28.301Z,2.30
2023-05-05T15:09:59.052Z,2.10
2023-05-05T15:12:26.933Z,3.57
2023-05-05T15:14:55.439Z,2.70
2023-05-05T15:17:23.036Z,1.97
2023-05-05T15:19:50.493Z,1.90
2023-05-05T15:22:18.031Z,2.10
2023-05-05T15:24:45.240Z,2.90
2023-05-05T15:27:12.562Z,5.20
2023-05-05T15:29:39.752Z,6.50
2023-05-05T15:32:07.294Z,2.10
2023-05-05T15:34:34.689Z,2.40
2023-05-05T15:37:01.942Z,1.90
2023-05-05T15:39:29.262Z,1.90
2023-05-05T15:41:56.635Z,1.83
2023-05-05T15:44:23.817Z,1.87
2023-05-05T15:46:51.245Z,2.40
2023-05-05T15:49:18.551Z,2.37
2023-05-05T15:51:45.811Z,2.70
2023-05-05T15:54:12.953Z,2.00
2023-05-05T15:56:40.386Z,2.37
2023-05-05T15:59:07.758Z,2.20
2023-05-05T16:01:36.343Z,1.80
2023-05-05T16:04:03.720Z,1.87
2023-05-05T16:06:31.415Z,2.37
2023-05-05T16:08:58.685Z,2.03
2023-05-05T16:11:26.520Z,1.70
2023-05-05T16:13:53.880Z,2.10
2023-05-05T16:16:21.809Z,2.00
2023-05-05T16:18:49.100Z,2.20
2023-05-05T16:21:16.590Z,2.10
2023-05-05T16:23:44.941Z,1.70
2023-05-05T16:26:12.634Z,1.90
2023-05-05T16:28:39.925Z,2.20
2023-05-05T16:31:09.467Z,2.03
2023-05-05T16:33:41.246Z,2.00
2023-05-05T16:36:09.864Z,2.07
2023-05-05T16:38:37.073Z,2.10
2023-05-05T16:41:04.346Z,2.30
2023-05-05T16:43:31.788Z,2.10
2023-05-05T16:45:59.030Z,2.20
2023-05-05T16:48:26.324Z,2.27
2023-05-05T16:50:56.361Z,2.47
2023-05-05T16:53:23.572Z,2.30
2023-05-05T16:55:52.051Z,2.70
2023-05-05T16:58:19.862Z,2.27
2023-05-05T17:00:48.969Z,2.50
2023-05-05T17:03:17.001Z,2.27
2023-05-05T17:05:44.717Z,2.40
2023-05-05T17:08:14.119Z,2.40
2023-05-05T17:10:41.786Z,1.97
2023-05-05T17:13:09.655Z,2.30
2023-05-05T17:15:40.543Z,2.47
2023-05-05T17:18:08.465Z,2.50
2023-05-05T17:20:36.262Z,3.93
2023-05-05T17:23:03.760Z,2.40
2023-05-05T17:25:31.096Z,2.30
2023-05-05T17:27:58.302Z,2.40
2023-05-05T17:30:25.635Z,2.23
2023-05-05T17:32:53.065Z,2.50
2023-05-05T17:35:21.270Z,2.53
2023-05-05T17:37:48.472Z,2.23
2023-05-05T17:40:15.744Z,2.10
2023-05-05T17:42:42.921Z,2.60
2023-05-05T17:45:10.772Z,2.23
2023-05-05T17:47:38.465Z,2.40
2023-05-05T17:50:05.901Z,2.47
2023-05-05T17:52:33.104Z,2.57
2023-05-05T17:55:00.302Z,2.20
2023-05-05T17:57:27.581Z,2.37
2023-05-05T17:59:54.879Z,2.23
2023-05-05T18:02:22.182Z,1.90
2023-05-05T18:04:49.422Z,2.40
2023-05-05T18:07:16.605Z,2.37
2023-05-05T18:09:43.850Z,2.73
2023-05-05T18:12:11.174Z,2.40
2023-05-05T18:14:38.471Z,3.93
2023-05-05T18:17:05.684Z,3.27
2023-05-05T18:19:33.205Z,3.10
2023-05-05T18:22:00.494Z,2.90
2023-05-05T18:24:28.207Z,3.33
2023-05-05T18:26:55.456Z,2.97
2023-05-05T18:29:22.868Z,2.90
2023-05-05T18:31:53.223Z,3.20
2023-05-05T18:34:21.284Z,3.13
2023-05-05T18:36:49.349Z,3.17
2023-05-05T18:39:17.732Z,2.93
2023-05-05T18:41:45.189Z,2.77
2023-05-05T18:44:12.393Z,3.33
2023-05-05T18:46:39.878Z,2.97
2023-05-05T18:49:07.393Z,2.93
2023-05-05T18:51:34.908Z,3.00
2023-05-05T18:54:02.086Z,3.23
2023-05-05T18:56:29.395Z,3.00
2023-05-05T18:58:56.583Z,3.03
2023-05-05T19:01:24.015Z,2.90
2023-05-05T19:03:51.418Z,3.37
2023-05-05T19:06:18.815Z,2.67
2023-05-05T19:08:46.544Z,3.10
2023-05-05T19:11:15.112Z,3.47
2023-05-05T19:13:42.642Z,3.07
2023-05-05T19:16:11.183Z,3.03
2023-05-05T19:18:38.830Z,3.57
2023-05-05T19:21:06.218Z,3.13
2023-05-05T19:23:34.593Z,2.70
2023-05-05T19:26:03.457Z,3.27
2023-05-05T19:28:31.422Z,3.20
2023-05-05T19:30:58.676Z,3.33
2023-05-05T19:33:25.839Z,3.37
2023-05-05T19:35:53.005Z,2.97
2023-05-05T19:38:20.260Z,2.77
2023-05-05T19:40:47.491Z,3.27
2023-05-05T19:43:14.971Z,3.00
2023-05-05T19:45:42.501Z,3.13
2023-05-05T19:48:09.903Z,3.30
2023-05-05T19:50:37.178Z,3.30
2023-05-05T19:53:04.621Z,3.30
2023-05-05T19:55:32.147Z,3.40
2023-05-05T19:57:59.292Z,3.37
2023-05-05T20:00:26.558Z,3.40
2023-05-05T20:02:53.838Z,3.63
2023-05-05T20:05:21.358Z,3.97
2023-05-05T20:07:48.594Z,3.63
2023-05-05T20:10:17.813Z,3.50
2023-05-05T20:12:48.303Z,3.57
2023-05-05T20:15:18.659Z,4.03
2023-05-05T20:17:46.888Z,3.50
2023-05-05T20:20:18.609Z,3.73
2023-05-05T20:22:46.645Z,3.50
2023-05-05T20:25:16.078Z,3.80
2023-05-05T20:27:43.780Z,3.80
2023-05-05T20:30:12.040Z,4.10
2023-05-05T20:32:39.388Z,4.17
2023-05-05T20:35:07.275Z,4.10
2023-05-05T20:37:34.525Z,4.50
2023-05-05T20:40:01.751Z,7.97
2023-05-05T20:42:29.746Z,4.40
2023-05-05T20:44:57.237Z,4.20
2023-05-05T20:47:24.755Z,4.03
2023-05-05T20:49:52.433Z,4.07
2023-05-05T20:52:19.939Z,3.80
2023-05-05T20:54:47.104Z,3.97
2023-05-05T20:57:14.344Z,3.60
2023-05-05T20:59:41.891Z,3.67
2023-05-05T21:02:09.247Z,3.93
2023-05-05T21:04:36.755Z,3.83
2023-05-05T21:07:03.938Z,3.83
2023-05-05T21:09:31.527Z,3.40
2023-05-05T21:11:58.812Z,3.60
2023-05-05T21:14:26.012Z,3.60
2023-05-05T21:16:53.228Z,3.50
2023-05-05T21:19:21.140Z,3.30
2023-05-05T21:21:48.974Z,3.13
2023-05-05T21:24:16.377Z,3.60
2023-05-05T21:26:44.277Z,3.63
2023-05-05T21:29:11.906Z,3.40
2023-05-05T21:31:39.252Z,3.23
2023-05-05T21:34:06.447Z,3.90
2023-05-05T21:36:33.909Z,3.73
2023-05-05T21:39:01.682Z,3.23
2023-05-05T21:41:28.983Z,3.87
2023-05-05T21:43:56.232Z,3.70
2023-05-05T21:46:23.480Z,3.30
2023-05-05T21:48:51.269Z,2.90
2023-05-05T21:51:18.425Z,3.30
2023-05-05T21:53:46.200Z,3.47
2023-05-05T21:56:13.391Z,3.00
2023-05-05T21:58:41.082Z,3.30
2023-05-05T22:01:08.353Z,3.50
2023-05-05T22:03:37.252Z,3.43
2023-05-05T22:06:04.536Z,3.87
2023-05-05T22:08:31.828Z,3.63
2023-05-05T22:10:59.017Z,3.43
2023-05-05T22:13:26.212Z,3.30
2023-05-05T22:15:53.499Z,3.07
2023-05-05T22:18:20.707Z,3.90
2023-05-05T22:20:47.915Z,3.50
2023-05-05T22:23:16.135Z,3.37
2023-05-05T22:25:44.455Z,3.30
2023-05-05T22:28:14.858Z,3.47
2023-05-05T22:30:42.457Z,3.37
2023-05-05T22:33:09.872Z,3.57
2023-05-05T22:35:38.086Z,3.40
2023-05-05T22:38:05.369Z,3.70
2023-05-05T22:40:32.556Z,3.40
2023-05-05T22:42:59.862Z,3.80
2023-05-05T22:45:27.217Z,3.63
2023-05-05T22:47:55.441Z,4.00
2023-05-05T22:50:22.855Z,3.30
2023-05-05T22:52:50.061Z,4.30
2023-05-05T22:55:17.625Z,3.70
2023-05-05T22:57:44.926Z,3.60
2023-05-05T23:00:13.487Z,3.57
2023-05-05T23:02:41.495Z,3.90
2023-05-05T23:05:09.257Z,3.50
2023-05-05T23:07:36.750Z,3.73
2023-05-05T23:10:04.443Z,3.70
2023-05-05T23:12:31.760Z,3.43
2023-05-05T23:14:58.941Z,3.67
2023-05-05T23:17:26.099Z,3.90
2023-05-05T23:19:53.267Z,4.00
2023-05-05T23:22:20.545Z,4.43
2023-05-05T23:24:47.837Z,4.10
2023-05-05T23:27:15.462Z,4.30
2023-05-05T23:29:42.645Z,3.90
2023-05-05T23:32:09.807Z,4.17
2023-05-05T23:34:37.001Z,4.63
2023-05-05T23:37:06.151Z,4.40
2023-05-05T23:39:34.742Z,4.63
2023-05-05T23:42:02.935Z,4.60
2023-05-05T23:44:30.299Z,4.80
2023-05-05T23:46:57.459Z,4.40
2023-05-05T23:49:26.272Z,4.70
2023-05-05T23:51:53.619Z,4.47
2023-05-05T23:54:20.860Z,4.33
2023-05-05T23:56:48.088Z,5.00
2023-05-05T23:59:16.301Z,5.10
